Latest Weather Observations for Brisbane Airport

IDQ60801

Issued at 8:53 pm EST Sunday 6 September 2026 (issued every 10 minutes, with the page automatically refreshed every 10 minutes)

About weather observations | Map of weather stations | Latest weather observations for QLD | Other Formats
Station Details ID: 040842 Name: BRISBANE AERO Lat: -27.39 Lon: 153.13 Height: 4.51 m
Data from the previous 72 hours. | See also: Recent months at Brisbane Airport
Date/Time
EST
Temp
°C
App
Temp
°C
Dew
Point
°C
Rel
Hum
%
Delta-T
°C
Wind Press
QNH
hPa
Press
MSL
hPa
Rain since
9am
mm
Dir  Spd
km/h
Gust
km/h
Spd
kts
Gust
kts
06/08:47pm 21.8 20.4 18.0 79 2.4 SSE 22 37 12 20 1018.1 1018.0 0.0
06/08:36pm 21.9 19.3 17.9 78 2.5 SSE 28 48 15 26 1017.8 1017.8 0.0
06/08:30pm 22.0 20.5 17.8 77 2.6 SSE 22 44 12 24 1017.6 1017.6 0.0
06/08:00pm 22.2 20.2 18.2 78 2.5 SSE 26 44 14 24 1016.9 1016.9 0.0
06/07:30pm 22.9 22.5 18.9 78 2.5 SSE 19 35 10 19 1016.3 1016.3 0.0
06/07:00pm 23.0 22.6 19.0 78 2.5 SE 19 33 10 18 1015.8 1015.8 0.0
06/06:30pm 20.7 22.9 19.7 94 0.6 NNE 7 9 4 5 1014.3 1014.3 0.0
06/06:00pm 20.8 22.4 19.1 90 1.1 NNE 9 11 5 6 1013.8 1013.8 0.0
06/05:30pm 21.8 22.8 19.4 86 1.5 NE 13 19 7 10 1013.4 1013.4 0.0
06/05:00pm 22.6 21.9 19.6 83 1.9 NNE 22 28 12 15 1012.9 1012.9 0.0
06/04:30pm 23.2 22.6 19.8 81 2.2 NNE 22 30 12 16 1012.5 1012.5 0.0
06/04:00pm 24.2 23.3 19.1 73 3.3 NNE 22 30 12 16 1012.5 1012.5 0.0
06/03:30pm 25.4 23.5 19.3 69 3.9 NNE 28 33 15 18 1012.3 1012.3 0.0
06/03:00pm 24.8 22.7 19.0 70 3.7 NNE 28 32 15 17 1012.2 1012.2 0.0
06/02:30pm 26.1 23.8 18.5 63 4.8 NNE 28 35 15 19 1012.5 1012.5 0.0
06/02:00pm 26.0 23.9 18.9 65 4.5 NNE 28 35 15 19 1012.6 1012.6 0.0
06/01:30pm 26.9 25.1 18.7 60 5.2 NNE 26 32 14 17 1012.9 1012.9 0.0
06/01:00pm 25.9 24.3 19.1 66 4.4 NE 26 33 14 18 1013.4 1013.4 0.0
06/12:30pm 26.2 25.2 18.9 64 4.7 NE 22 26 12 14 1014.0 1014.0 0.0
06/12:00pm 26.1 25.2 18.2 61 5.0 NE 20 26 11 14 1014.4 1014.4 0.0
06/11:30am 25.1 22.9 17.8 64 4.6 NNE 26 30 14 16 1014.9 1014.9 0.0
06/11:00am 25.1 24.7 19.0 69 3.9 NE 19 22 10 12 1015.5 1015.5 0.0
06/10:30am 25.6 25.1 17.8 62 4.9 NE 17 22 9 12 1015.8 1015.8 0.0
06/10:00am 24.4 22.8 16.4 61 4.9 NNE 20 26 11 14 1016.1 1016.1 0.0
06/09:30am 25.0 23.7 17.2 62 4.8 N 20 28 11 15 1015.7 1015.7 0.0
06/09:00am 24.4 23.0 15.6 58 5.3 N 17 24 9 13 1016.4 1016.4 0.0
06/08:30am 23.8 22.6 17.1 66 4.1 NNW 19 24 10 13 1016.6 1016.6 0.0
06/08:00am 22.6 21.9 17.3 72 3.3 NNW 17 20 9 11 1016.5 1016.5 0.0
06/07:30am 20.4 21.6 17.4 83 1.8 NNW 7 11 4 6 1016.2 1016.2 0.0
06/07:00am 19.6 18.0 16.6 83 1.8 N 20 28 11 15 1015.7 1015.7 0.0
06/06:30am 17.1 19.5 16.9 99 0.1 CALM 0 2 0 1 1016.1 1016.1 0.0
06/06:00am 17.3 19.7 17.0 98 0.2 CALM 0 0 0 0 1016.2 1016.2 0.0
06/05:30am 17.5 18.8 17.2 98 0.2 E 6 11 3 6 1016.2 1016.2 0.0
06/05:00am 17.9 19.8 17.7 99 0.1 SSW 4 7 2 4 1016.0 1016.0 0.0
06/04:30am 17.5 17.8 17.0 97 0.3 SSW 11 15 6 8 1016.1 1016.1 0.0
06/04:00am 15.8 14.4 15.6 99 0.1 N 17 19 9 10 1015.4 1015.4 0.0
06/03:30am 15.8 15.9 15.6 99 0.1 N 9 13 5 7 1015.1 1015.1 0.0
06/03:22am 15.5 14.5 14.7 95 0.5 N 13 15 7 8 1015.0 1015.0 0.0
06/03:00am 16.0 14.9 15.2 95 0.5 N 15 17 8 9 1015.0 1015.0 0.0
06/02:30am 16.3 16.2 16.0 98 0.2 NNE 11 15 6 8 1015.2 1015.2 0.0
06/02:21am 17.4 17.9 17.4 100 0.0 N 11 19 6 10 1015.3 1015.3 0.0
06/02:18am 17.3 17.7 17.3 100 0.0 N 11 19 6 10 1015.3 1015.3 0.0
06/02:10am 17.1 18.4 17.1 100 0.0 N 6 9 3 5 1015.4 1015.4 0.0
06/02:07am 17.1 18.8 17.1 100 0.0 N 4 9 2 5 1015.5 1015.5 0.0
06/02:00am 17.4 20.0 17.4 100 0.0 CALM 0 0 0 0 1015.6 1015.6 0.0
06/01:37am 17.1 19.5 16.9 99 0.1 CALM 0 0 0 0 1015.8 1015.8 0.0
06/01:30am 17.7 20.4 17.7 100 0.0 CALM 0 0 0 0 1015.9 1015.9 0.0
06/01:29am 17.8 20.5 17.8 100 0.0 CALM 0 0 0 0 1015.9 1015.9 0.0
06/01:00am 17.5 19.7 17.5 100 0.0 N 2 6 1 3 1016.0 1016.0 0.0
06/12:30am 18.3 19.3 17.8 97 0.3 NW 9 13 5 7 1016.2 1016.2 0.0
06/12:00am 19.3 20.6 18.5 95 0.5 NW 9 11 5 6 1016.3 1016.3 0.0
 
Date/Time
EST
Temp
°C
App
Temp
°C
Dew
Point
°C
Rel
Hum
%
Delta-T
°C
Wind Press
QNH
hPa
Press
MSL
hPa
Rain since
9am
mm
Dir  Spd
km/h
Gust
km/h
Spd
kts
Gust
kts
05/11:30pm 19.2 20.6 18.7 97 0.3 NW 9 11 5 6 1016.2 1016.2 0.0
05/11:00pm 19.5 20.3 19.0 97 0.3 N 13 17 7 9 1016.1 1016.1 0.0
05/10:30pm 19.6 20.6 19.4 99 0.1 NNE 13 17 7 9 1016.4 1016.4 0.0
05/10:00pm 19.2 20.1 19.2 100 0.0 NNE 13 15 7 8 1016.6 1016.6 0.0
05/09:30pm 19.5 20.8 19.2 98 0.2 N 11 15 6 8 1016.7 1016.7 0.0
05/09:00pm 19.6 20.4 19.1 97 0.3 N 13 19 7 10 1016.8 1016.8 0.0
05/08:30pm 20.4 21.1 19.7 96 0.4 N 15 19 8 10 1016.8 1016.8 0.0
05/08:00pm 20.2 21.2 19.4 95 0.5 N 13 17 7 9 1016.7 1016.7 0.0
05/07:30pm 20.4 20.7 19.6 95 0.5 N 17 19 9 10 1016.7 1016.7 0.0
05/07:00pm 20.6 21.0 19.8 95 0.5 NNE 17 24 9 13 1016.6 1016.6 0.0
05/06:30pm 20.5 20.9 19.8 96 0.4 N 17 20 9 11 1016.3 1016.3 0.0
05/06:00pm 20.6 20.7 19.9 96 0.4 NNE 19 26 10 14 1016.2 1016.2 0.0
05/05:30pm 20.6 21.0 19.8 95 0.5 NNE 17 22 9 12 1016.1 1016.1 0.0
05/05:00pm 21.3 21.1 19.4 89 1.2 NNE 19 26 10 14 1016.0 1016.0 0.0
05/04:30pm 21.7 21.2 19.1 85 1.6 NNE 20 26 11 14 1015.8 1015.8 0.0
05/04:00pm 22.5 22.1 19.3 82 2.0 NNE 20 26 11 14 1015.7 1015.7 0.0
05/03:30pm 22.7 21.5 18.5 77 2.6 NNE 22 28 12 15 1016.0 1016.0 0.0
05/03:00pm 23.4 22.6 19.3 78 2.6 NNE 22 28 12 15 1016.1 1016.1 0.0
05/02:30pm 23.6 23.1 18.7 74 3.1 NNE 19 22 10 12 1016.4 1016.4 0.0
05/02:00pm 23.7 23.7 19.0 75 3.0 NNE 17 22 9 12 1016.8 1016.8 0.0
05/01:30pm 24.0 23.8 18.4 71 3.5 NE 17 22 9 12 1017.3 1017.3 0.0
05/01:00pm 23.9 24.2 18.8 73 3.2 NNE 15 19 8 10 1017.8 1017.8 0.0
05/12:30pm 23.4 23.6 17.6 70 3.6 NNE 13 19 7 10 1018.7 1018.6 0.0
05/12:00pm 23.5 23.6 17.5 69 3.7 NNE 13 19 7 10 1019.3 1019.2 0.0
05/11:30am 23.1 23.1 18.0 73 3.2 NNE 15 19 8 10 1020.1 1020.0 0.0
05/11:00am 22.4 22.5 18.4 78 2.5 NNE 15 20 8 11 1020.7 1020.6 0.0
05/10:30am 22.2 22.2 18.0 77 2.6 NNE 15 20 8 11 1021.1 1021.0 0.0
05/10:00am 22.2 22.8 18.6 80 2.3 N 13 19 7 10 1021.6 1021.5 0.0
05/09:30am 22.0 23.5 18.0 78 2.5 N 7 11 4 6 1021.8 1021.7 0.0
05/09:00am 21.6 23.0 17.8 79 2.3 SE 7 13 4 7 1021.9 1021.8 0.0
05/08:30am 20.6 21.2 16.8 79 2.3 SSW 9 11 5 6 1021.9 1021.8 0.0
05/08:00am 19.4 19.5 16.4 83 1.8 SSW 11 13 6 7 1021.8 1021.7 0.0
05/07:30am 18.2 18.4 16.7 91 0.9 SSW 11 15 6 8 1021.6 1021.5 0.0
05/07:00am 17.5 17.9 16.4 93 0.7 SSW 9 13 5 7 1021.4 1021.3 0.0
05/06:30am 16.2 16.1 15.9 98 0.2 SSW 11 11 6 6 1021.1 1021.0 0.0
05/06:00am 15.3 15.3 15.3 100 0.0 SSW 9 9 5 5 1020.8 1020.7 0.0
05/05:48am 15.3 15.3 15.1 99 0.1 SW 9 11 5 6 1020.8 1020.7 0.0
05/05:30am 15.7 15.9 15.7 100 0.0 SW 9 11 5 6 1020.6 1020.5 0.0
05/05:00am 15.3 15.7 15.3 100 0.0 SW 7 9 4 5 1020.5 1020.4 0.0
05/04:30am 16.1 16.4 16.1 100 0.0 SSW 9 11 5 6 1020.4 1020.3 0.0
05/04:00am 16.4 17.1 16.2 99 0.1 SSW 7 9 4 5 1020.3 1020.2 0.0
05/03:30am 16.7 17.6 16.5 99 0.1 SSW 7 9 4 5 1020.2 1020.1 0.0
05/03:00am 16.2 16.9 16.0 99 0.1 SSW 7 9 4 5 1020.2 1020.1 0.0
05/02:48am 16.5 16.9 16.2 98 0.2 SSW 9 9 5 5 1020.2 1020.1 0.0
05/02:30am 17.1 18.1 16.8 98 0.2 SSW 7 9 4 5 1020.3 1020.2 0.0
05/02:00am 17.7 18.8 17.1 96 0.4 S 7 9 4 5 1020.4 1020.3 0.0
05/01:30am 17.1 18.1 16.8 98 0.2 SSW 7 9 4 5 1020.3 1020.2 0.0
05/01:00am 17.8 18.7 17.6 99 0.1 SSW 9 11 5 6 1020.2 1020.1 0.0
05/12:58am 17.7 18.6 17.5 99 0.1 SSW 9 11 5 6 1020.2 1020.1 0.0
05/12:30am 17.7 18.6 17.5 99 0.1 SSW 9 11 5 6 1020.3 1020.2 0.0
05/12:00am 18.0 18.9 17.5 97 0.3 SSW 9 11 5 6 1020.2 1020.1 0.0
 
Date/Time
EST
Temp
°C
App
Temp
°C
Dew
Point
°C
Rel
Hum
%
Delta-T
°C
Wind Press
QNH
hPa
Press
MSL
hPa
Rain since
9am
mm
Dir  Spd
km/h
Gust
km/h
Spd
kts
Gust
kts
04/11:30pm 18.3 19.4 18.0 98 0.2 SSW 9 9 5 5 1020.1 1020.0 0.0
04/11:00pm 17.8 18.7 17.6 99 0.1 SSW 9 13 5 7 1020.2 1020.1 0.0
04/10:30pm 17.8 19.0 17.3 97 0.3 SSW 7 11 4 6 1020.2 1020.1 0.0
04/10:00pm 19.8 21.3 18.8 94 0.6 SSE 9 11 5 6 1020.3 1020.2 0.0
04/09:30pm 20.1 21.2 18.9 93 0.8 SSE 11 15 6 8 1020.2 1020.1 0.0
04/09:00pm 20.6 22.0 19.6 94 0.6 SE 11 19 6 10 1020.0 1019.9 0.0
04/08:30pm 20.9 22.9 19.9 94 0.6 SE 9 13 5 7 1019.8 1019.7 0.0
04/08:00pm 20.7 22.0 18.5 87 1.4 SE 9 13 5 7 1019.4 1019.3 0.0
04/07:30pm 20.3 21.8 18.1 87 1.4 ESE 7 11 4 6 1019.3 1019.2 0.0
04/07:00pm 21.0 22.2 18.2 84 1.7 ESE 9 13 5 7 1019.1 1019.0 0.0
04/06:30pm 21.1 22.0 17.5 80 2.2 E 9 11 5 6 1019.0 1018.9 0.0
04/06:00pm 21.0 22.1 18.0 83 1.9 ENE 9 13 5 7 1018.6 1018.5 0.0
04/05:30pm 21.6 22.5 18.4 82 2.0 NE 11 13 6 7 1018.3 1018.2 0.0
04/05:00pm 22.9 23.5 18.7 77 2.6 ENE 13 20 7 11 1018.1 1018.0 0.0
04/04:30pm 23.7 23.2 17.9 70 3.6 ENE 17 22 9 12 1017.7 1017.7 0.0
04/04:00pm 24.3 23.6 17.3 65 4.3 NE 17 26 9 14 1017.5 1017.5 0.0
04/03:30pm 25.4 24.6 17.1 60 5.2 NE 17 24 9 13 1017.2 1017.2 0.0
04/03:00pm 26.0 25.0 16.5 55 5.8 NE 17 20 9 11 1017.0 1017.0 0.0
04/02:30pm 26.6 25.6 16.5 54 6.2 NE 17 26 9 14 1017.2 1017.2 0.0
04/02:00pm 28.4 27.2 15.0 44 8.1 NE 15 19 8 10 1017.2 1017.2 0.0
04/01:30pm 28.7 26.3 12.6 37 9.4 NE 17 24 9 13 1017.5 1017.5 0.0
04/01:00pm 28.9 27.3 13.9 39 9.0 NE 15 17 8 9 1018.0 1017.9 0.0
04/12:30pm 29.9 29.1 15.2 40 9.0 ENE 13 17 7 9 1018.3 1018.2 0.0
04/12:00pm 29.5 28.3 14.1 39 9.3 NE 13 17 7 9 1018.7 1018.6 0.0
04/11:30am 29.7 28.2 13.0 35 9.9 N 13 17 7 9 1019.4 1019.3 0.0
04/11:00am 29.3 27.8 13.1 37 9.6 NNE 13 17 7 9 1020.0 1019.9 0.0
04/10:30am 27.9 27.3 13.4 40 8.6 NE 9 11 5 6 1020.4 1020.3 0.0
04/10:00am 26.8 26.0 13.9 45 7.6 NE 11 17 6 9 1020.7 1020.6 0.0
04/09:30am 25.6 25.9 14.4 50 6.7 S 6 11 3 6 1020.8 1020.7 0.0
04/09:00am 23.4 23.1 13.3 53 5.8 SSW 7 9 4 5 1020.8 1020.7 0.0
04/08:30am 21.8 21.5 14.4 63 4.3 S 9 11 5 6 1021.0 1020.9 0.0
04/08:00am 19.6 19.4 14.8 74 2.8 SSW 9 13 5 7 1020.7 1020.6 0.0
04/07:30am 18.2 17.2 14.5 79 2.1 SSW 13 17 7 9 1020.3 1020.2 0.0
04/07:00am 17.3 17.8 15.6 90 1.0 S 7 9 4 5 1020.1 1020.0 0.0
04/06:30am 15.4 15.4 15.1 98 0.2 S 9 11 5 6 1019.6 1019.5 0.0
04/06:00am 14.4 14.4 14.1 98 0.2 S 7 7 4 4 1019.3 1019.2 0.0
04/05:30am 15.3 15.2 15.0 98 0.2 SSW 9 13 5 7 1019.0 1018.9 0.0
04/05:00am 15.0 16.5 14.7 98 0.2 CALM 0 0 0 0 1018.7 1018.6 0.0
04/04:30am 14.5 15.0 13.9 96 0.3 SSW 4 7 2 4 1018.4 1018.3 0.0
04/04:00am 15.5 15.8 14.9 96 0.3 SW 7 9 4 5 1018.2 1018.1 0.0
04/03:30am 16.1 16.1 15.1 94 0.6 NNW 9 11 5 6 1018.1 1018.0 0.0
04/03:00am 17.2 16.7 15.9 92 0.8 N 13 15 7 8 1018.1 1018.0 0.0
04/02:30am 17.3 16.9 16.2 93 0.7 N 13 15 7 8 1018.1 1018.0 0.0
04/02:00am 18.1 17.6 17.0 93 0.7 N 15 20 8 11 1018.2 1018.1 0.0
04/01:30am 18.4 17.5 16.9 91 0.9 N 17 19 9 10 1018.3 1018.2 0.0
04/01:00am 18.7 17.8 16.9 89 1.1 N 17 24 9 13 1018.4 1018.3 0.0
04/12:30am 19.1 18.3 17.1 88 1.2 NNE 17 20 9 11 1018.4 1018.3 0.0
04/12:00am 19.5 18.8 17.3 87 1.3 NNE 17 20 9 11 1018.3 1018.2 0.0
 
Date/Time
EST
Temp
°C
App
Temp
°C
Dew
Point
°C
Rel
Hum
%
Delta-T
°C
Wind Press
QNH
hPa
Press
MSL
hPa
Rain since
9am
mm
Dir  Spd
km/h
Gust
km/h
Spd
kts
Gust
kts
03/11:30pm 19.0 18.2 17.0 88 1.2 NNE 17 19 9 10 1018.3 1018.2 0.0
03/11:00pm 19.4 18.4 17.5 89 1.2 NNE 19 24 10 13 1018.3 1018.2 0.0
03/10:30pm 19.6 18.8 17.9 90 1.0 NNE 19 24 10 13 1018.2 1018.1 0.0
03/10:00pm 19.7 18.7 18.0 90 1.0 NNE 20 26 11 14 1018.2 1018.1 0.0
03/09:30pm 19.8 19.1 18.3 91 0.9 N 19 24 10 13 1018.1 1018.0 0.0
03/09:00pm 20.0 19.8 18.5 91 0.9 NNE 17 19 9 10 1018.0 1017.9 0.0

Other formats

Comma delimited format used in spreadsheet applications
http://www.bom.gov.au/fwo/IDQ60801/IDQ60801.94578.axf

JavaScript Object Notation format (JSON) in row-major order
http://www.bom.gov.au/fwo/IDQ60801/IDQ60801.94578.json

Data quality

Most of these data are generated automatically and are frequently updated. Quality checks on data are not normally performed. It is possible for incorrect values to appear. Refer to information at About Latest Weather Observations and please check the disclaimer before using these data.